Time;durP1;ratioP1;P1;durP2;ratioP2;P2;SDS_P1;SDS_P2;PMS_P1;PMS_P2;Temp;Humidity;BMP_temperature;BMP_pressure;BME280_temperature;BME280_humidity;BME280_pressure;Samples;Min_cycle;Max_cycle;Signal;HPM_P1;HPM_P2
2021/10/06 00:01:23;;;;;;;2.40;1.00;;;12.00;99.90;;;;;;5030950;28;20367;-66
2021/10/06 00:03:48;;;;;;;3.92;1.20;;;12.00;99.90;;;;;;5030041;28;20049;-66
2021/10/06 00:06:14;;;;;;;1.63;0.80;;;12.00;99.90;;;;;;5030771;28;20035;-66
2021/10/06 00:08:40;;;;;;;1.40;0.80;;;12.00;99.90;;;;;;5032080;28;20025;-67
2021/10/06 00:11:05;;;;;;;3.25;1.13;;;12.00;99.90;;;;;;5031778;28;20458;-67
2021/10/06 00:13:31;;;;;;;2.70;0.70;;;12.00;99.90;;;;;;5018171;28;20032;-67
2021/10/06 00:15:57;;;;;;;3.33;0.82;;;12.00;99.90;;;;;;5010976;28;20061;-67
2021/10/06 00:18:24;;;;;;;4.55;1.60;;;12.00;99.90;;;;;;5011865;28;20139;-66
2021/10/06 00:20:50;;;;;;;4.70;1.02;;;11.90;99.90;;;;;;5010759;28;20047;-67
2021/10/06 00:23:16;;;;;;;2.25;0.77;;;11.90;99.90;;;;;;5010656;28;20076;-67
2021/10/06 00:25:41;;;;;;;2.25;0.77;;;11.90;99.90;;;;;;5010636;28;20420;-66
2021/10/06 00:28:07;;;;;;;8.02;1.15;;;12.00;99.90;;;;;;5011406;28;20032;-67
2021/10/06 00:30:33;;;;;;;3.30;0.70;;;12.00;99.90;;;;;;5011611;28;20042;-66
2021/10/06 00:32:58;;;;;;;1.98;0.80;;;12.00;99.90;;;;;;5009941;28;20030;-66
2021/10/06 00:35:24;;;;;;;3.45;0.73;;;12.00;99.90;;;;;;5011788;28;20080;-67
2021/10/06 00:37:50;;;;;;;4.80;1.08;;;11.90;99.90;;;;;;5011010;28;20555;-68
2021/10/06 00:40:16;;;;;;;3.80;1.50;;;11.90;99.90;;;;;;5011682;28;20030;-66
2021/10/06 00:42:41;;;;;;;3.13;0.82;;;11.90;99.90;;;;;;5010190;28;20337;-68
2021/10/06 00:45:08;;;;;;;4.45;0.80;;;11.90;99.90;;;;;;5009832;28;20033;-67
2021/10/06 00:47:34;;;;;;;2.53;0.63;;;11.90;99.90;;;;;;5010050;28;20030;-67
2021/10/06 00:49:59;;;;;;;8.93;1.17;;;12.00;99.90;;;;;;5009744;28;20383;-66
2021/10/06 00:52:25;;;;;;;1.58;0.70;;;12.00;99.90;;;;;;5010015;28;20492;-67
2021/10/06 00:54:51;;;;;;;1.73;0.45;;;12.00;99.90;;;;;;5010907;28;20033;-66
2021/10/06 00:57:16;;;;;;;3.78;0.70;;;11.90;99.90;;;;;;5010035;28;20022;-66
2021/10/06 00:59:42;;;;;;;3.05;0.90;;;11.80;99.90;;;;;;5009869;28;20036;-66
2021/10/06 01:02:08;;;;;;;5.63;1.08;;;11.80;99.90;;;;;;5010653;28;20041;-67
2021/10/06 01:04:34;;;;;;;3.78;0.80;;;11.80;99.90;;;;;;5010092;28;20380;-67
2021/10/06 01:07:00;;;;;;;1.90;0.80;;;11.90;99.90;;;;;;5009586;28;20025;-67
2021/10/06 01:09:28;;;;;;;2.83;0.85;;;11.90;99.90;;;;;;5011737;28;20116;-67
2021/10/06 01:11:56;;;;;;;1.50;0.60;;;11.90;99.90;;;;;;5009490;28;20033;-66
2021/10/06 01:14:23;;;;;;;5.43;1.25;;;11.90;99.90;;;;;;5011535;28;20040;-66
2021/10/06 01:16:49;;;;;;;2.25;0.70;;;12.00;99.90;;;;;;5009575;28;20034;-72
2021/10/06 01:19:24;;;;;;;4.55;0.70;;;12.00;99.90;;;;;;5010020;28;20391;-67
2021/10/06 01:21:51;;;;;;;2.58;0.70;;;11.90;99.90;;;;;;5010925;28;20057;-67
2021/10/06 01:24:17;;;;;;;2.60;0.82;;;11.80;99.90;;;;;;5010022;28;20144;-67
2021/10/06 01:26:44;;;;;;;2.63;0.70;;;11.70;99.90;;;;;;5010981;28;20518;-67
2021/10/06 01:29:10;;;;;;;2.97;0.63;;;11.80;99.90;;;;;;5009180;28;20037;-66
2021/10/06 01:31:36;;;;;;;2.70;0.98;;;11.80;99.90;;;;;;5011130;28;20034;-66
2021/10/06 01:34:02;;;;;;;3.03;0.50;;;11.80;99.90;;;;;;5010550;28;20430;-67
2021/10/06 01:36:27;;;;;;;5.80;1.17;;;11.70;99.90;;;;;;5010877;28;20033;-67
2021/10/06 01:38:53;;;;;;;3.75;0.80;;;11.70;99.90;;;;;;5009142;28;20068;-67
2021/10/06 01:41:19;;;;;;;3.67;1.02;;;11.70;99.90;;;;;;5009573;28;20054;-66
2021/10/06 01:43:44;;;;;;;2.08;0.73;;;11.70;99.90;;;;;;5010601;28;20026;-66
2021/10/06 01:46:10;;;;;;;4.30;0.47;;;11.70;99.90;;;;;;5008909;28;20034;-66
2021/10/06 01:48:36;;;;;;;4.32;0.77;;;11.70;99.90;;;;;;5009564;28;20042;-66
2021/10/06 01:51:01;;;;;;;3.47;0.70;;;11.60;99.90;;;;;;5009887;28;20445;-66
2021/10/06 01:53:39;;;;;;;2.17;0.52;;;11.70;99.90;;;;;;5008887;28;20030;-67
2021/10/06 01:56:04;;;;;;;5.75;0.75;;;11.90;99.90;;;;;;5009767;28;20168;-67
2021/10/06 01:58:30;;;;;;;3.38;1.10;;;11.90;99.90;;;;;;5011962;28;20061;-67
2021/10/06 02:00:56;;;;;;;4.50;0.88;;;11.80;99.90;;;;;;5013697;28;20050;-66
2021/10/06 02:03:22;;;;;;;6.50;1.42;;;12.00;99.90;;;;;;5014254;28;20049;-66
2021/10/06 02:05:48;;;;;;;4.22;1.48;;;12.00;99.90;;;;;;5012748;28;20026;-66
2021/10/06 02:08:17;;;;;;;1.90;0.63;;;12.10;99.90;;;;;;5012304;28;20112;-66
2021/10/06 02:10:43;;;;;;;8.27;2.00;;;12.10;99.90;;;;;;5014011;28;20340;-66
2021/10/06 02:13:10;;;;;;;8.10;0.93;;;12.20;99.90;;;;;;5013206;28;20120;-66
2021/10/06 02:15:36;;;;;;;10.25;1.80;;;12.00;99.90;;;;;;5012779;28;20030;-66
2021/10/06 02:18:02;;;;;;;2.65;0.60;;;12.10;99.90;;;;;;5013106;28;20099;-67
2021/10/06 02:20:28;;;;;;;5.15;0.80;;;12.10;99.90;;;;;;5012821;28;20040;-66
2021/10/06 02:22:54;;;;;;;3.90;1.17;;;12.10;99.90;;;;;;5013428;28;20034;-67
2021/10/06 02:25:20;;;;;;;2.22;0.70;;;12.10;99.90;;;;;;5012615;28;20431;-66
2021/10/06 02:27:47;;;;;;;2.40;0.77;;;12.20;99.90;;;;;;5014037;28;20456;-66
2021/10/06 02:30:14;;;;;;;4.20;0.95;;;12.10;99.90;;;;;;5013777;28;20033;-66
2021/10/06 02:32:39;;;;;;;2.20;0.73;;;12.20;99.90;;;;;;5012616;28;20337;-67
2021/10/06 02:35:06;;;;;;;2.03;0.90;;;12.30;99.90;;;;;;5013290;28;20034;-67
2021/10/06 02:37:32;;;;;;;6.55;1.92;;;12.20;99.90;;;;;;5014082;28;20092;-67
2021/10/06 02:39:58;;;;;;;5.50;0.60;;;12.10;99.90;;;;;;5011634;28;20026;-67
2021/10/06 02:42:23;;;;;;;4.30;0.60;;;12.20;99.90;;;;;;5013709;28;20022;-67
2021/10/06 02:44:49;;;;;;;2.83;0.50;;;12.30;99.90;;;;;;5013606;28;20032;-67
2021/10/06 02:47:15;;;;;;;4.57;0.95;;;12.20;99.90;;;;;;5011883;28;20398;-67
2021/10/06 02:49:41;;;;;;;2.10;0.77;;;12.20;99.90;;;;;;5013715;28;20459;-67
2021/10/06 02:52:06;;;;;;;3.08;0.95;;;12.20;99.90;;;;;;5012701;28;20036;-66
2021/10/06 02:54:32;;;;;;;4.60;1.02;;;12.00;99.90;;;;;;5012185;28;20032;-66
2021/10/06 02:57:01;;;;;;;2.30;0.95;;;12.00;99.90;;;;;;5012688;28;20026;-66
2021/10/06 02:59:31;;;;;;;3.45;1.25;;;12.00;99.90;;;;;;5012195;28;20034;-67
2021/10/06 03:01:57;;;;;;;5.22;1.02;;;12.10;99.90;;;;;;5013057;28;20079;-65
2021/10/06 03:04:23;;;;;;;5.88;0.95;;;12.10;99.90;;;;;;5012028;28;20050;-66
2021/10/06 03:06:49;;;;;;;2.67;0.88;;;12.10;99.90;;;;;;5012137;28;20444;-67
2021/10/06 03:09:15;;;;;;;3.85;1.48;;;12.10;99.90;;;;;;5011118;28;20128;-68
2021/10/06 03:11:40;;;;;;;3.67;1.20;;;12.00;99.90;;;;;;5011724;28;20116;-67
2021/10/06 03:14:06;;;;;;;4.45;0.80;;;12.00;99.90;;;;;;5011210;28;20088;-66
2021/10/06 03:16:32;;;;;;;2.28;1.13;;;12.00;99.90;;;;;;5012976;28;20153;-67
2021/10/06 03:18:58;;;;;;;3.15;1.05;;;11.90;99.90;;;;;;5012528;28;20029;-66
2021/10/06 03:21:23;;;;;;;3.70;1.10;;;12.00;99.90;;;;;;5011764;28;20089;-67
2021/10/06 03:23:49;;;;;;;2.00;0.95;;;12.00;99.90;;;;;;5011761;28;20128;-67
2021/10/06 03:26:14;;;;;;;6.47;1.25;;;11.90;99.90;;;;;;5011068;28;20032;-66
2021/10/06 03:28:40;;;;;;;4.10;2.40;;;11.80;99.90;;;;;;5012741;28;20121;-66
2021/10/06 03:31:06;;;;;;;3.03;1.20;;;11.80;99.90;;;;;;5012382;28;20053;-66
2021/10/06 03:33:32;;;;;;;4.22;0.75;;;11.70;99.90;;;;;;5012848;28;20030;-66
2021/10/06 03:35:57;;;;;;;4.13;1.20;;;11.60;99.90;;;;;;5010925;28;20068;-66
2021/10/06 03:38:23;;;;;;;5.82;1.27;;;11.70;99.90;;;;;;5011509;28;20121;-67
2021/10/06 03:40:49;;;;;;;10.25;2.47;;;11.70;99.90;;;;;;5011374;28;20022;-66
2021/10/06 03:43:15;;;;;;;3.47;1.45;;;11.70;99.90;;;;;;5012089;28;20030;-66
2021/10/06 03:45:40;;;;;;;6.07;1.20;;;11.60;99.90;;;;;;5011454;28;20383;-66
2021/10/06 03:48:06;;;;;;;3.45;1.00;;;11.60;99.90;;;;;;5010736;28;20030;-67
2021/10/06 03:50:32;;;;;;;5.57;1.85;;;11.70;99.90;;;;;;5010938;28;20029;-67
2021/10/06 03:52:58;;;;;;;2.08;0.90;;;11.60;99.90;;;;;;5010642;28;20022;-70
2021/10/06 03:55:23;;;;;;;10.15;1.77;;;11.60;99.90;;;;;;5011061;28;20034;-67
2021/10/06 03:57:49;;;;;;;7.00;1.65;;;11.60;99.90;;;;;;5010738;28;20025;-66
2021/10/06 04:00:15;;;;;;;5.40;2.28;;;11.60;99.90;;;;;;5010413;28;20042;-67
2021/10/06 04:02:41;;;;;;;6.82;1.00;;;11.50;99.90;;;;;;5012018;28;20033;-67
2021/10/06 04:05:08;;;;;;;3.88;1.70;;;11.50;99.90;;;;;;5011041;28;20610;-67
2021/10/06 04:07:34;;;;;;;2.95;1.00;;;11.60;99.90;;;;;;5010909;28;20117;-67
2021/10/06 04:10:00;;;;;;;5.50;1.20;;;11.50;99.90;;;;;;5011642;28;20116;-67
2021/10/06 04:12:26;;;;;;;3.13;1.55;;;11.50;99.90;;;;;;5011964;28;20475;-67
2021/10/06 04:14:51;;;;;;;4.55;1.48;;;11.60;99.90;;;;;;5010963;28;20116;-67
2021/10/06 04:17:17;;;;;;;5.78;1.08;;;11.50;99.90;;;;;;5009957;28;20025;-67
2021/10/06 04:19:43;;;;;;;3.80;1.38;;;11.60;99.90;;;;;;5012204;28;20059;-68
2021/10/06 04:22:09;;;;;;;4.18;1.25;;;11.60;99.90;;;;;;5010951;28;20033;-67
2021/10/06 04:24:34;;;;;;;2.58;1.17;;;11.50;99.90;;;;;;5011915;28;20069;-68
2021/10/06 04:27:00;;;;;;;3.13;1.60;;;11.50;99.90;;;;;;5010114;28;20392;-70
2021/10/06 04:29:26;;;;;;;6.82;1.40;;;11.50;99.90;;;;;;5012134;28;20498;-70
2021/10/06 04:31:51;;;;;;;2.85;1.30;;;11.60;99.90;;;;;;5011588;28;20057;-66
2021/10/06 04:34:17;;;;;;;9.07;1.73;;;11.50;99.90;;;;;;5011078;28;20044;-67
2021/10/06 04:36:43;;;;;;;4.18;1.40;;;11.50;99.90;;;;;;5010499;28;20436;-67
2021/10/06 04:39:08;;;;;;;8.02;1.33;;;11.50;99.90;;;;;;5009632;28;20392;-67
2021/10/06 04:41:34;;;;;;;6.28;1.63;;;11.50;99.90;;;;;;5010207;28;20062;-66
2021/10/06 04:44:04;;;;;;;5.60;1.58;;;11.30;99.90;;;;;;5009650;28;20068;-75
2021/10/06 04:46:30;;;;;;;8.52;1.50;;;11.40;99.90;;;;;;5011635;28;20113;-68
2021/10/06 04:48:56;;;;;;;6.22;1.55;;;11.40;99.90;;;;;;5011938;28;20133;-67
2021/10/06 04:51:21;;;;;;;6.15;1.92;;;11.40;99.90;;;;;;5009384;28;20125;-68
2021/10/06 04:53:47;;;;;;;6.25;2.35;;;11.50;99.90;;;;;;5010177;28;20036;-67
2021/10/06 04:56:12;;;;;;;5.72;1.30;;;11.50;99.90;;;;;;5009356;28;20029;-68
2021/10/06 04:58:38;;;;;;;9.30;1.80;;;11.50;99.90;;;;;;5011374;28;20033;-68
2021/10/06 05:01:04;;;;;;;5.28;1.52;;;11.50;99.90;;;;;;5009477;28;20045;-68
2021/10/06 05:03:29;;;;;;;5.13;1.17;;;11.50;99.90;;;;;;5010128;28;20053;-68
2021/10/06 05:05:55;;;;;;;5.35;1.83;;;11.50;99.90;;;;;;5010098;28;20144;-68
2021/10/06 05:08:21;;;;;;;6.88;1.23;;;11.50;99.90;;;;;;5009398;28;20037;-68
2021/10/06 05:10:46;;;;;;;3.17;1.75;;;11.60;99.90;;;;;;5009858;28;20442;-67
2021/10/06 05:13:13;;;;;;;6.65;1.83;;;11.50;99.90;;;;;;5009137;28;20098;-68
2021/10/06 05:15:38;;;;;;;4.75;2.00;;;11.60;99.90;;;;;;5010926;28;20026;-67
2021/10/06 05:18:04;;;;;;;6.80;1.92;;;11.60;99.90;;;;;;5008905;28;20475;-67
2021/10/06 05:20:30;;;;;;;6.00;1.85;;;11.60;99.90;;;;;;5009794;28;20080;-67
2021/10/06 05:22:55;;;;;;;5.80;1.50;;;11.60;99.90;;;;;;5010992;28;20108;-66
2021/10/06 05:25:21;;;;;;;4.03;1.38;;;11.50;99.90;;;;;;5009095;28;20084;-66
2021/10/06 05:27:48;;;;;;;3.92;1.55;;;11.50;99.90;;;;;;5009410;28;20122;-67
2021/10/06 05:30:14;;;;;;;8.30;1.75;;;11.50;99.90;;;;;;5008783;28;20029;-66
2021/10/06 05:32:40;;;;;;;5.57;1.42;;;11.50;99.90;;;;;;5008986;28;20124;-66
2021/10/06 05:35:07;;;;;;;6.53;1.60;;;11.40;99.90;;;;;;5013368;28;20120;-67
2021/10/06 05:37:33;;;;;;;6.18;1.73;;;11.50;99.90;;;;;;5014796;28;20029;-66
2021/10/06 05:39:58;;;;;;;5.90;1.65;;;11.60;99.90;;;;;;5012836;28;20029;-67
2021/10/06 05:42:24;;;;;;;7.60;1.90;;;11.60;99.90;;;;;;5014113;28;20029;-67
2021/10/06 05:44:50;;;;;;;6.28;1.67;;;11.50;99.90;;;;;;5013412;28;20026;-67
2021/10/06 05:47:15;;;;;;;5.95;1.90;;;11.50;99.90;;;;;;5012299;28;20142;-67
2021/10/06 05:49:41;;;;;;;8.82;1.58;;;11.40;99.90;;;;;;5012932;28;20524;-67
2021/10/06 05:52:07;;;;;;;5.35;1.58;;;11.50;99.90;;;;;;5012270;28;20026;-67
2021/10/06 05:54:34;;;;;;;8.30;1.60;;;11.30;99.90;;;;;;5012549;28;20034;-66
2021/10/06 05:57:00;;;;;;;7.53;2.03;;;11.50;99.90;;;;;;5012871;28;20034;-66
2021/10/06 05:59:26;;;;;;;7.38;2.10;;;11.40;99.90;;;;;;5011785;28;20058;-67
2021/10/06 06:01:51;;;;;;;4.25;1.63;;;11.40;99.90;;;;;;5012723;28;20053;-67
2021/10/06 06:04:17;;;;;;;7.57;1.85;;;11.40;99.90;;;;;;5011716;28;20444;-67
2021/10/06 06:06:44;;;;;;;4.82;2.15;;;11.50;99.90;;;;;;5012809;28;20026;-66
2021/10/06 06:09:10;;;;;;;6.60;1.65;;;11.50;99.90;;;;;;5012184;28;20440;-67
2021/10/06 06:11:36;;;;;;;6.63;1.75;;;11.60;99.90;;;;;;5012153;28;20100;-67
2021/10/06 06:14:02;;;;;;;3.75;1.65;;;11.60;99.90;;;;;;5013866;28;20088;-68
2021/10/06 06:16:27;;;;;;;6.70;1.70;;;11.50;99.90;;;;;;5013487;28;20029;-68
2021/10/06 06:18:53;;;;;;;4.80;2.00;;;11.60;99.90;;;;;;5012338;28;20140;-67
2021/10/06 06:21:19;;;;;;;6.72;1.80;;;11.60;99.90;;;;;;5011559;28;20032;-67
2021/10/06 06:23:44;;;;;;;10.57;2.15;;;11.60;99.90;;;;;;5009581;28;20045;-66
2021/10/06 06:26:10;;;;;;;6.00;2.05;;;11.60;99.90;;;;;;5012557;28;20030;-67
2021/10/06 06:28:38;;;;;;;8.80;1.90;;;11.70;99.90;;;;;;5012165;28;20040;-64
2021/10/06 06:31:05;;;;;;;6.47;1.75;;;12.20;99.90;;;;;;5000280;28;20037;-67
2021/10/06 06:33:30;;;;;;;13.75;2.33;;;12.80;99.90;;;;;;5010099;28;20038;-67
2021/10/06 06:35:56;;;;;;;5.75;1.42;;;12.20;99.90;;;;;;5010336;28;20049;-67
2021/10/06 06:38:22;;;;;;;6.18;1.70;;;11.90;99.90;;;;;;5007923;28;20076;-67
2021/10/06 06:40:47;;;;;;;6.30;1.67;;;11.90;99.90;;;;;;5008616;28;20172;-67
2021/10/06 06:43:13;;;;;;;6.75;1.30;;;12.20;99.90;;;;;;5008562;28;20408;-67
2021/10/06 06:45:39;;;;;;;4.75;1.33;;;12.40;99.90;;;;;;5010550;28;20037;-67
2021/10/06 06:48:05;;;;;;;5.25;1.42;;;12.60;99.90;;;;;;5011816;28;20030;-67
2021/10/06 06:50:31;;;;;;;5.20;1.55;;;12.80;99.90;;;;;;5011208;28;20033;-66
2021/10/06 06:52:57;;;;;;;4.40;1.10;;;12.70;99.90;;;;;;5012915;28;20060;-66
2021/10/06 06:55:23;;;;;;;7.72;1.58;;;12.50;99.90;;;;;;5008435;28;20030;-68
2021/10/06 06:57:49;;;;;;;8.05;1.50;;;12.50;99.90;;;;;;5008013;28;20502;-66
2021/10/06 07:00:15;;;;;;;5.63;1.63;;;12.50;99.90;;;;;;5004421;28;20109;-66
2021/10/06 07:02:41;;;;;;;5.25;1.55;;;12.40;99.90;;;;;;5018084;28;20038;-66
2021/10/06 07:05:07;;;;;;;5.65;1.70;;;12.40;99.90;;;;;;5004549;28;20058;-66
2021/10/06 07:07:33;;;;;;;6.55;1.80;;;12.30;99.90;;;;;;5004337;28;20483;-68
2021/10/06 07:09:59;;;;;;;10.25;1.88;;;12.30;99.90;;;;;;5011668;28;20030;-67
2021/10/06 07:12:24;;;;;;;7.88;1.85;;;12.40;99.90;;;;;;5010614;28;20494;-67
2021/10/06 07:14:51;;;;;;;4.82;1.63;;;12.40;99.90;;;;;;5011661;28;20171;-67
2021/10/06 07:17:18;;;;;;;5.22;1.52;;;12.40;99.90;;;;;;5010895;28;20036;-67
2021/10/06 07:19:46;;;;;;;10.68;2.65;;;12.40;99.90;;;;;;5012976;28;20184;-66
2021/10/06 07:22:13;;;;;;;5.53;1.25;;;12.40;99.90;;;;;;5010777;28;20463;-67
2021/10/06 07:24:39;;;;;;;5.18;1.70;;;12.40;99.90;;;;;;5012006;28;20068;-67
2021/10/06 07:27:05;;;;;;;8.25;1.88;;;12.50;99.90;;;;;;5013183;28;20029;-67
2021/10/06 07:29:31;;;;;;;14.00;1.83;;;12.50;99.90;;;;;;5010751;28;20035;-66
2021/10/06 07:31:58;;;;;;;7.75;2.85;;;12.50;99.90;;;;;;5010918;28;20034;-67
2021/10/06 07:34:24;;;;;;;5.88;1.17;;;12.40;99.90;;;;;;5011464;28;20052;-67
2021/10/06 07:36:50;;;;;;;5.10;1.65;;;12.30;99.90;;;;;;5011959;28;20034;-67
2021/10/06 07:39:16;;;;;;;6.93;2.10;;;12.40;99.90;;;;;;5010687;28;20104;-65
2021/10/06 07:41:42;;;;;;;6.90;1.67;;;12.40;99.90;;;;;;5010641;28;20390;-66
2021/10/06 07:44:08;;;;;;;8.60;1.63;;;12.40;99.90;;;;;;5010639;28;20038;-66
2021/10/06 07:46:34;;;;;;;7.05;1.75;;;12.50;99.90;;;;;;5010081;28;20096;-66
2021/10/06 07:48:59;;;;;;;8.85;1.70;;;12.50;99.90;;;;;;5010822;28;20026;-66
2021/10/06 07:51:25;;;;;;;8.63;1.80;;;12.50;99.90;;;;;;5011764;28;20485;-66
2021/10/06 07:53:51;;;;;;;7.78;1.67;;;12.50;99.90;;;;;;5010613;28;20551;-66
2021/10/06 07:56:17;;;;;;;12.60;1.85;;;12.50;99.90;;;;;;5008798;28;20432;-66
2021/10/06 07:58:43;;;;;;;8.95;1.63;;;12.40;99.90;;;;;;5011071;28;20025;-65
2021/10/06 08:01:09;;;;;;;8.77;1.77;;;12.50;99.90;;;;;;5009061;28;20045;-67
2021/10/06 08:03:35;;;;;;;13.05;1.73;;;12.50;99.90;;;;;;4993527;28;20141;-61
2021/10/06 08:06:01;;;;;;;7.88;2.03;;;12.60;99.90;;;;;;5010070;28;20033;-61
2021/10/06 08:08:27;;;;;;;8.73;2.30;;;12.90;99.90;;;;;;5010242;28;20069;-61
2021/10/06 08:10:57;;;;;;;7.68;1.35;;;13.20;99.90;;;;;;5010338;28;20022;-66
2021/10/06 08:13:24;;;;;;;5.90;1.92;;;13.70;99.90;;;;;;5009658;28;20033;-66
2021/10/06 08:15:51;;;;;;;11.43;1.70;;;13.50;99.90;;;;;;5009808;28;20395;-64
2021/10/06 08:18:19;;;;;;;8.00;2.13;;;14.60;99.90;;;;;;5009880;28;20030;-65
2021/10/06 08:20:52;;;;;;;4.38;1.70;;;15.60;99.90;;;;;;5010165;28;20032;-64
2021/10/06 08:23:20;;;;;;;7.30;1.27;;;16.10;99.90;;;;;;5010967;28;20034;-67
2021/10/06 08:25:48;;;;;;;7.95;1.38;;;16.50;99.90;;;;;;5010277;28;20092;-66
2021/10/06 08:28:14;;;;;;;4.72;1.58;;;16.20;99.90;;;;;;5010211;28;20427;-69
2021/10/06 08:30:40;;;;;;;4.78;1.17;;;16.40;99.90;;;;;;5010323;28;20080;-65
2021/10/06 08:33:06;;;;;;;5.97;1.42;;;16.50;99.90;;;;;;5009583;28;20034;-67
2021/10/06 08:35:32;;;;;;;5.38;1.20;;;16.40;99.90;;;;;;4998165;28;20041;-68
2021/10/06 08:37:58;;;;;;;6.38;0.95;;;16.20;99.90;;;;;;5004264;28;20032;-69
2021/10/06 08:40:24;;;;;;;6.63;1.52;;;16.10;99.90;;;;;;5009173;28;20080;-68
2021/10/06 08:42:50;;;;;;;13.65;1.58;;;16.20;99.90;;;;;;5009997;28;20479;-68
2021/10/06 08:45:16;;;;;;;5.82;1.08;;;16.40;99.90;;;;;;5019014;28;20316;-70
2021/10/06 08:47:43;;;;;;;6.43;1.20;;;16.30;99.90;;;;;;5029345;28;20037;-71
2021/10/06 08:50:14;;;;;;;4.05;1.23;;;16.30;99.90;;;;;;5029571;28;20025;-70
2021/10/06 08:52:40;;;;;;;5.35;1.42;;;16.10;99.90;;;;;;5029417;28;20044;-67
2021/10/06 08:55:10;;;;;;;4.25;0.90;;;15.80;99.90;;;;;;5029872;28;20029;-69
2021/10/06 08:57:36;;;;;;;3.85;1.10;;;16.00;99.90;;;;;;5028793;28;20278;-70
2021/10/06 09:00:03;;;;;;;6.95;1.20;;;16.40;99.90;;;;;;5029507;28;20036;-69
2021/10/06 09:02:39;;;;;;;11.30;1.15;;;16.70;99.90;;;;;;5029027;28;20036;-69
2021/10/06 09:05:07;;;;;;;10.40;1.55;;;16.80;99.90;;;;;;5029368;28;20046;-67
2021/10/06 09:07:32;;;;;;;5.80;1.20;;;16.70;99.90;;;;;;5029639;28;20032;-67
2021/10/06 09:10:13;;;;;;;4.30;1.08;;;17.00;99.90;;;;;;5030134;28;20108;-68
2021/10/06 09:12:40;;;;;;;6.50;0.60;;;16.70;99.90;;;;;;5029803;28;20017;-67
2021/10/06 09:15:10;;;;;;;5.88;1.20;;;16.30;99.90;;;;;;5030703;28;20490;-67
2021/10/06 09:17:38;;;;;;;4.93;0.93;;;16.40;99.90;;;;;;5028568;28;20056;-67
2021/10/06 09:20:10;;;;;;;5.82;1.00;;;16.60;99.90;;;;;;5029274;28;20076;-67
2021/10/06 09:22:35;;;;;;;6.10;0.90;;;16.80;99.90;;;;;;5028491;28;20026;-68
2021/10/06 09:25:03;;;;;;;5.90;0.88;;;16.60;99.90;;;;;;5029387;28;20025;-67
2021/10/06 09:27:31;;;;;;;6.07;0.98;;;16.60;99.90;;;;;;5029615;28;20091;-67
2021/10/06 09:30:00;;;;;;;2.42;0.65;;;16.50;99.90;;;;;;5030815;28;20052;-68
2021/10/06 09:32:34;;;;;;;4.32;0.60;;;16.90;99.90;;;;;;5028219;28;20037;-67
2021/10/06 09:35:03;;;;;;;5.85;1.88;;;17.10;99.90;;;;;;5029985;28;20489;-69
2021/10/06 09:37:29;;;;;;;5.40;1.00;;;17.10;99.90;;;;;;5028696;28;20041;-69
2021/10/06 09:39:55;;;;;;;3.47;0.90;;;17.10;99.90;;;;;;5028808;28;20026;-71
2021/10/06 09:42:21;;;;;;;4.40;0.63;;;16.80;99.90;;;;;;5029422;28;20155;-69
2021/10/06 09:44:56;;;;;;;4.22;0.65;;;16.20;99.90;;;;;;5028604;28;20087;-68
2021/10/06 09:47:23;;;;;;;6.55;0.90;;;15.60;99.90;;;;;;5029084;28;20036;-69
2021/10/06 09:49:57;;;;;;;4.95;1.13;;;15.50;99.90;;;;;;5028790;28;20431;-68
2021/10/06 09:52:27;;;;;;;5.70;1.00;;;15.60;99.90;;;;;;5028139;28;20026;-68
2021/10/06 09:54:59;;;;;;;4.70;0.82;;;15.40;99.90;;;;;;5028382;28;20036;-67
2021/10/06 09:57:28;;;;;;;5.68;1.48;;;15.20;99.90;;;;;;5028005;28;20463;-69
2021/10/06 09:59:54;;;;;;;3.63;1.25;;;15.20;99.90;;;;;;5028363;28;20052;-68
2021/10/06 10:02:20;;;;;;;6.15;1.77;;;15.30;99.90;;;;;;5029417;28;20033;-74
2021/10/06 10:04:47;;;;;;;9.23;1.13;;;15.20;99.90;;;;;;5028991;28;20226;-68
2021/10/06 10:07:13;;;;;;;4.90;1.15;;;15.10;99.90;;;;;;5028301;28;20463;-67
2021/10/06 10:09:41;;;;;;;9.43;0.88;;;15.30;99.90;;;;;;5029339;28;20444;-68
2021/10/06 10:12:09;;;;;;;6.55;1.52;;;15.60;99.90;;;;;;5028331;28;20037;-67
2021/10/06 10:14:34;;;;;;;5.03;0.90;;;15.90;99.90;;;;;;5027660;28;20181;-68
2021/10/06 10:17:00;;;;;;;9.52;1.30;;;16.20;99.90;;;;;;5030065;28;20132;-68
2021/10/06 10:19:27;;;;;;;4.43;1.27;;;16.20;99.90;;;;;;5030328;28;20424;-67
2021/10/06 10:21:54;;;;;;;2.53;0.60;;;16.10;99.90;;;;;;5032112;28;20053;-67
2021/10/06 10:24:25;;;;;;;15.15;1.42;;;15.90;99.90;;;;;;5033208;28;20057;-67
2021/10/06 10:26:56;;;;;;;4.07;0.97;;;15.50;99.90;;;;;;5032903;28;20585;-66
2021/10/06 10:29:31;;;;;;;6.10;1.20;;;15.10;99.90;;;;;;5031446;28;20283;-68
2021/10/06 10:32:21;;;;;;;3.47;1.10;;;14.90;99.90;;;;;;5032093;28;20060;-67
2021/10/06 10:34:56;;;;;;;4.68;1.45;;;15.00;99.90;;;;;;5031925;28;20037;-67
2021/10/06 10:37:45;;;;;;;5.28;0.93;;;15.00;99.90;;;;;;5031176;28;20056;-68
2021/10/06 10:40:32;;;;;;;3.85;0.80;;;15.10;99.90;;;;;;5024690;28;20076;-68
2021/10/06 10:43:18;;;;;;;7.68;1.35;;;15.20;99.90;;;;;;5031607;28;20088;-68
2021/10/06 10:45:52;;;;;;;3.60;0.85;;;15.00;99.90;;;;;;5032579;28;20026;-67
2021/10/06 10:48:24;;;;;;;3.10;0.70;;;14.90;99.90;;;;;;5031632;28;20101;-67
2021/10/06 10:50:50;;;;;;;4.22;1.05;;;14.50;99.90;;;;;;5033176;28;20033;-67
2021/10/06 10:53:18;;;;;;;5.28;0.80;;;14.30;99.90;;;;;;5032731;28;20033;-68
2021/10/06 10:55:52;;;;;;;5.15;1.15;;;14.40;99.90;;;;;;5031040;28;20037;-68
2021/10/06 10:58:29;;;;;;;3.78;1.10;;;14.30;99.90;;;;;;5031404;28;20025;-68
2021/10/06 11:00:59;;;;;;;6.70;1.10;;;14.20;99.90;;;;;;5032932;28;20037;-67
2021/10/06 11:03:25;;;;;;;7.15;1.45;;;14.10;99.90;;;;;;5030324;28;20049;-68
2021/10/06 11:05:52;;;;;;;6.05;1.35;;;14.10;99.90;;;;;;5031042;28;20021;-68
2021/10/06 11:08:29;;;;;;;7.53;1.23;;;14.10;99.90;;;;;;5032671;28;20021;-68
2021/10/06 11:11:10;;;;;;;6.03;1.00;;;14.00;99.90;;;;;;5031468;28;20029;-69
2021/10/06 11:13:44;;;;;;;4.78;1.33;;;13.90;99.90;;;;;;5030732;28;20037;-69
2021/10/06 11:16:10;;;;;;;6.53;1.10;;;13.90;99.90;;;;;;5032757;28;20033;-68
2021/10/06 11:18:59;;;;;;;7.82;1.15;;;13.80;99.90;;;;;;5032260;28;20379;-70
2021/10/06 11:21:37;;;;;;;3.92;1.50;;;13.80;99.90;;;;;;5032335;28;20093;-74
2021/10/06 11:24:21;;;;;;;5.40;1.45;;;14.00;99.90;;;;;;5032516;28;20033;-67
2021/10/06 11:26:56;;;;;;;4.63;1.30;;;14.00;99.90;;;;;;5030335;28;20029;-68
2021/10/06 11:29:22;;;;;;;6.53;1.55;;;13.90;99.90;;;;;;5030714;28;20029;-69
2021/10/06 11:31:48;;;;;;;4.95;1.45;;;13.90;99.90;;;;;;5029061;28;20458;-69
2021/10/06 11:34:20;;;;;;;3.38;1.30;;;14.30;99.90;;;;;;5030864;28;20039;-68
2021/10/06 11:36:53;;;;;;;6.57;1.30;;;14.40;99.90;;;;;;5030257;28;20038;-68
2021/10/06 11:39:20;;;;;;;8.32;1.35;;;14.30;99.90;;;;;;5032161;28;20029;-69
2021/10/06 11:41:48;;;;;;;7.35;2.70;;;14.50;99.90;;;;;;5031257;28;20031;-70
2021/10/06 11:44:27;;;;;;;3.72;1.25;;;14.80;99.90;;;;;;5030295;28;20029;-69
2021/10/06 11:46:57;;;;;;;7.57;1.77;;;14.80;99.90;;;;;;5031940;28;20100;-68
2021/10/06 11:49:27;;;;;;;5.55;1.35;;;14.80;99.90;;;;;;5031571;28;20024;-68
2021/10/06 11:51:53;;;;;;;2.97;1.17;;;14.60;99.90;;;;;;5031931;28;20159;-69
2021/10/06 11:54:21;;;;;;;7.18;1.98;;;14.50;99.90;;;;;;5030812;28;20064;-69
2021/10/06 11:56:57;;;;;;;5.40;1.30;;;14.60;99.90;;;;;;5031323;28;20042;-69
2021/10/06 11:59:26;;;;;;;7.03;1.52;;;14.50;99.90;;;;;;5032136;28;20072;-68
2021/10/06 12:01:55;;;;;;;3.22;1.30;;;14.30;99.90;;;;;;5032254;28;20055;-70
2021/10/06 12:04:24;;;;;;;4.07;1.50;;;14.20;99.90;;;;;;5031884;28;20057;-68
2021/10/06 12:07:00;;;;;;;10.30;2.72;;;14.20;99.90;;;;;;5030034;28;20098;-69
2021/10/06 12:09:34;;;;;;;6.80;1.95;;;14.20;99.90;;;;;;5031949;28;20024;-69
2021/10/06 12:12:00;;;;;;;4.07;1.60;;;14.00;99.90;;;;;;5030396;28;20231;-68
2021/10/06 12:14:34;;;;;;;7.13;1.50;;;14.10;99.90;;;;;;5030515;28;20038;-68
2021/10/06 12:17:06;;;;;;;6.20;1.58;;;13.90;99.90;;;;;;5032390;28;20420;-68
2021/10/06 12:19:31;;;;;;;;;;;13.80;99.90;;;;;;5031569;28;20115;-69
2021/10/06 12:21:58;;;;;;;8.70;1.88;;;13.80;99.90;;;;;;5031767;28;19917;-68
2021/10/06 12:24:26;;;;;;;6.93;2.47;;;13.70;99.90;;;;;;5030248;28;20470;-68
2021/10/06 12:26:53;;;;;;;9.10;2.50;;;13.70;99.90;;;;;;5031484;28;20040;-68
2021/10/06 12:29:21;;;;;;;3.72;1.80;;;13.70;99.90;;;;;;5029822;28;20052;-68
2021/10/06 12:31:47;;;;;;;8.05;1.60;;;13.60;99.90;;;;;;5030557;28;20037;-69
2021/10/06 12:34:17;;;;;;;7.60;2.10;;;13.60;99.90;;;;;;5029890;28;20408;-68
2021/10/06 12:36:49;;;;;;;5.95;3.45;;;13.70;99.90;;;;;;5028991;28;20032;-69
2021/10/06 12:39:26;;;;;;;7.55;1.67;;;13.90;99.90;;;;;;5031285;28;20025;-68
2021/10/06 12:41:56;;;;;;;5.55;1.50;;;14.60;99.90;;;;;;5030140;28;20033;-68
2021/10/06 12:44:32;;;;;;;5.68;1.85;;;15.30;99.90;;;;;;5029907;28;20033;-68
2021/10/06 12:46:58;;;;;;;7.75;1.88;;;14.90;99.90;;;;;;5029307;28;20071;-68